sensor_id;sensor_type;location;lat;lon;timestamp;pressure;altitude;pressure_sealevel;temperature;humidity
22647;BME280;11490;42.726;23.268;2023-03-25T00:02:20;94957.63;;;10.53;80.72
22647;BME280;11490;42.726;23.268;2023-03-25T00:04:52;94955.25;;;10.39;81.31
22647;BME280;11490;42.726;23.268;2023-03-25T00:07:19;94955.16;;;10.18;83.90
22647;BME280;11490;42.726;23.268;2023-03-25T00:09:45;94950.06;;;9.71;86.36
22647;BME280;11490;42.726;23.268;2023-03-25T00:12:12;94951.91;;;9.71;87.38
22647;BME280;11490;42.726;23.268;2023-03-25T00:14:38;94945.66;;;9.93;85.86
22647;BME280;11490;42.726;23.268;2023-03-25T00:17:04;94957.22;;;10.16;84.61
22647;BME280;11490;42.726;23.268;2023-03-25T00:19:31;94946.44;;;10.22;83.07
22647;BME280;11490;42.726;23.268;2023-03-25T00:21:57;94924.94;;;10.12;83.18
22647;BME280;11490;42.726;23.268;2023-03-25T00:24:23;94920.25;;;10.02;83.25
22647;BME280;11490;42.726;23.268;2023-03-25T00:26:48;94916.47;;;9.70;86.67
22647;BME280;11490;42.726;23.268;2023-03-25T00:29:15;94930.66;;;10.04;84.20
22647;BME280;11490;42.726;23.268;2023-03-25T00:31:41;94940.25;;;9.88;84.83
22647;BME280;11490;42.726;23.268;2023-03-25T00:34:07;94933.94;;;9.78;86.03
22647;BME280;11490;42.726;23.268;2023-03-25T00:36:34;94926.69;;;9.90;83.93
22647;BME280;11490;42.726;23.268;2023-03-25T00:39:05;94918.34;;;9.41;87.57
22647;BME280;11490;42.726;23.268;2023-03-25T00:41:30;94924.28;;;9.32;89.22
22647;BME280;11490;42.726;23.268;2023-03-25T00:43:58;94929.38;;;9.61;88.02
22647;BME280;11490;42.726;23.268;2023-03-25T00:46:25;94923.78;;;9.75;86.68
22647;BME280;11490;42.726;23.268;2023-03-25T00:48:51;94921.00;;;9.70;86.61
22647;BME280;11490;42.726;23.268;2023-03-25T00:51:18;94916.34;;;9.20;88.80
22647;BME280;11490;42.726;23.268;2023-03-25T00:53:47;94903.78;;;9.32;90.16
22647;BME280;11490;42.726;23.268;2023-03-25T00:56:12;94915.50;;;9.59;88.26
22647;BME280;11490;42.726;23.268;2023-03-25T00:58:38;94909.03;;;9.55;87.81
22647;BME280;11490;42.726;23.268;2023-03-25T01:01:12;94907.13;;;9.68;86.85
22647;BME280;11490;42.726;23.268;2023-03-25T01:03:39;94916.81;;;9.74;85.34
22647;BME280;11490;42.726;23.268;2023-03-25T01:06:15;94904.06;;;9.76;84.98
22647;BME280;11490;42.726;23.268;2023-03-25T01:08:42;94903.78;;;9.32;87.88
22647;BME280;11490;42.726;23.268;2023-03-25T01:11:24;94911.78;;;9.60;87.29
22647;BME280;11490;42.726;23.268;2023-03-25T01:13:49;94905.50;;;9.67;85.07
22647;BME280;11490;42.726;23.268;2023-03-25T01:16:15;94902.59;;;9.68;84.43
22647;BME280;11490;42.726;23.268;2023-03-25T01:18:41;94896.56;;;9.73;83.69
22647;BME280;11490;42.726;23.268;2023-03-25T01:21:07;94883.56;;;9.76;83.63
22647;BME280;11490;42.726;23.268;2023-03-25T01:23:33;94888.41;;;9.34;86.51
22647;BME280;11490;42.726;23.268;2023-03-25T01:25:59;94887.50;;;8.88;89.74
22647;BME280;11490;42.726;23.268;2023-03-25T01:28:25;94879.31;;;8.90;90.97
22647;BME280;11490;42.726;23.268;2023-03-25T01:30:59;94878.59;;;9.23;88.15
22647;BME280;11490;42.726;23.268;2023-03-25T01:33:24;94870.53;;;9.18;88.74
22647;BME280;11490;42.726;23.268;2023-03-25T01:35:50;94863.38;;;9.07;89.41
22647;BME280;11490;42.726;23.268;2023-03-25T01:38:15;94862.78;;;9.16;89.33
22647;BME280;11490;42.726;23.268;2023-03-25T01:40:40;94863.13;;;9.20;89.19
22647;BME280;11490;42.726;23.268;2023-03-25T01:43:09;94862.38;;;9.36;88.40
22647;BME280;11490;42.726;23.268;2023-03-25T01:45:38;94867.38;;;9.49;86.11
22647;BME280;11490;42.726;23.268;2023-03-25T01:50:42;94857.50;;;9.33;87.28
22647;BME280;11490;42.726;23.268;2023-03-25T01:53:09;94872.53;;;9.39;86.01
22647;BME280;11490;42.726;23.268;2023-03-25T01:55:35;94865.34;;;9.40;85.08
22647;BME280;11490;42.726;23.268;2023-03-25T01:58:03;94867.50;;;9.26;84.75
22647;BME280;11490;42.726;23.268;2023-03-25T02:00:32;94856.72;;;8.93;88.47
22647;BME280;11490;42.726;23.268;2023-03-25T02:02:58;94860.75;;;8.55;90.31
22647;BME280;11490;42.726;23.268;2023-03-25T02:05:34;94857.25;;;8.66;90.89
22647;BME280;11490;42.726;23.268;2023-03-25T02:08:03;94850.44;;;8.99;89.15
22647;BME280;11490;42.726;23.268;2023-03-25T02:10:30;94862.00;;;8.64;90.71
22647;BME280;11490;42.726;23.268;2023-03-25T02:12:57;94859.97;;;8.83;89.75
22647;BME280;11490;42.726;23.268;2023-03-25T02:15:23;94855.97;;;8.69;88.47
22647;BME280;11490;42.726;23.268;2023-03-25T02:28:28;94852.25;;;8.81;89.54
22647;BME280;11490;42.726;23.268;2023-03-25T02:39:33;94834.56;;;8.75;88.14
22647;BME280;11490;42.726;23.268;2023-03-25T02:42:12;94844.41;;;8.75;88.42
22647;BME280;11490;42.726;23.268;2023-03-25T02:47:26;94848.22;;;8.79;86.95
22647;BME280;11490;42.726;23.268;2023-03-25T02:49:57;94844.41;;;8.75;86.76
22647;BME280;11490;42.726;23.268;2023-03-25T02:52:34;94848.16;;;8.39;87.44
22647;BME280;11490;42.726;23.268;2023-03-25T02:55:06;94840.16;;;8.16;89.72
22647;BME280;11490;42.726;23.268;2023-03-25T02:57:37;94844.38;;;8.35;90.49
22647;BME280;11490;42.726;23.268;2023-03-25T03:00:04;94823.53;;;8.08;90.93
22647;BME280;11490;42.726;23.268;2023-03-25T03:02:50;94826.53;;;8.47;89.64
22647;BME280;11490;42.726;23.268;2023-03-25T03:05:23;94820.78;;;8.27;90.32
22647;BME280;11490;42.726;23.268;2023-03-25T03:08:02;94825.06;;;8.51;88.98
22647;BME280;11490;42.726;23.268;2023-03-25T03:27:54;94826.53;;;7.77;91.17
22647;BME280;11490;42.726;23.268;2023-03-25T03:30:42;94838.19;;;7.99;91.43
22647;BME280;11490;42.726;23.268;2023-03-25T03:36:06;94848.09;;;7.57;91.05
22647;BME280;11490;42.726;23.268;2023-03-25T03:38:44;94855.66;;;7.95;90.07
22647;BME280;11490;42.726;23.268;2023-03-25T03:41:17;94843.22;;;7.43;90.91
22647;BME280;11490;42.726;23.268;2023-03-25T03:43:51;94840.09;;;7.46;92.72
22647;BME280;11490;42.726;23.268;2023-03-25T03:46:22;94833.88;;;7.52;93.18
22647;BME280;11490;42.726;23.268;2023-03-25T03:48:54;94828.31;;;7.42;91.83
22647;BME280;11490;42.726;23.268;2023-03-25T03:51:26;94839.97;;;7.41;93.93
22647;BME280;11490;42.726;23.268;2023-03-25T03:54:05;94839.00;;;7.65;92.45
22647;BME280;11490;42.726;23.268;2023-03-25T03:56:42;94837.38;;;7.76;89.56
22647;BME280;11490;42.726;23.268;2023-03-25T03:59:21;94836.53;;;7.52;92.22
22647;BME280;11490;42.726;23.268;2023-03-25T04:01:58;94844.69;;;7.39;93.57
22647;BME280;11490;42.726;23.268;2023-03-25T04:04:24;94835.00;;;7.32;94.02
22647;BME280;11490;42.726;23.268;2023-03-25T04:07:14;94838.50;;;7.15;95.21
22647;BME280;11490;42.726;23.268;2023-03-25T04:10:00;94845.00;;;7.30;96.00
22647;BME280;11490;42.726;23.268;2023-03-25T04:12:30;94835.97;;;7.50;95.52
22647;BME280;11490;42.726;23.268;2023-03-25T04:15:00;94844.25;;;7.42;96.03
22647;BME280;11490;42.726;23.268;2023-03-25T04:17:27;94839.56;;;7.25;95.37
22647;BME280;11490;42.726;23.268;2023-03-25T04:19:57;94842.69;;;7.64;94.80
22647;BME280;11490;42.726;23.268;2023-03-25T04:22:23;94825.69;;;7.53;93.89
22647;BME280;11490;42.726;23.268;2023-03-25T04:24:49;94826.72;;;7.41;93.94
22647;BME280;11490;42.726;23.268;2023-03-25T04:27:16;94837.91;;;7.43;94.72
22647;BME280;11490;42.726;23.268;2023-03-25T04:29:42;94848.56;;;7.66;94.47
22647;BME280;11490;42.726;23.268;2023-03-25T04:32:12;94854.13;;;7.88;92.39
22647;BME280;11490;42.726;23.268;2023-03-25T04:34:37;94843.94;;;7.61;92.99
22647;BME280;11490;42.726;23.268;2023-03-25T04:37:03;94843.44;;;7.53;94.44
22647;BME280;11490;42.726;23.268;2023-03-25T04:39:28;94838.78;;;7.78;92.00
22647;BME280;11490;42.726;23.268;2023-03-25T04:41:57;94839.03;;;7.35;94.35
22647;BME280;11490;42.726;23.268;2023-03-25T04:44:26;94846.31;;;7.40;95.16
22647;BME280;11490;42.726;23.268;2023-03-25T04:46:53;94840.72;;;7.71;93.17
22647;BME280;11490;42.726;23.268;2023-03-25T04:49:21;94851.31;;;7.59;95.33
22647;BME280;11490;42.726;23.268;2023-03-25T04:51:48;94838.06;;;7.71;94.32
22647;BME280;11490;42.726;23.268;2023-03-25T04:54:16;94829.88;;;7.84;92.51
22647;BME280;11490;42.726;23.268;2023-03-25T04:56:41;94842.47;;;7.77;91.54
22647;BME280;11490;42.726;23.268;2023-03-25T04:59:07;94845.03;;;7.95;93.00
22647;BME280;11490;42.726;23.268;2023-03-25T05:01:35;94847.69;;;8.19;90.57
22647;BME280;11490;42.726;23.268;2023-03-25T05:04:03;94838.22;;;7.88;91.82
22647;BME280;11490;42.726;23.268;2023-03-25T05:06:34;94848.47;;;7.84;93.94
22647;BME280;11490;42.726;23.268;2023-03-25T05:09:01;94839.47;;;8.08;93.19
22647;BME280;11490;42.726;23.268;2023-03-25T05:11:28;94844.38;;;8.35;91.75
22647;BME280;11490;42.726;23.268;2023-03-25T05:13:54;94858.09;;;8.20;92.17
22647;BME280;11490;42.726;23.268;2023-03-25T05:16:20;94860.75;;;8.32;93.61
22647;BME280;11490;42.726;23.268;2023-03-25T05:18:46;94839.94;;;8.05;93.19
22647;BME280;11490;42.726;23.268;2023-03-25T05:21:11;94842.81;;;8.16;93.68
22647;BME280;11490;42.726;23.268;2023-03-25T05:23:37;94855.44;;;8.32;93.17
22647;BME280;11490;42.726;23.268;2023-03-25T05:26:03;94849.69;;;8.35;94.28
22647;BME280;11490;42.726;23.268;2023-03-25T05:28:28;94848.63;;;8.59;93.06
22647;BME280;11490;42.726;23.268;2023-03-25T05:31:02;94813.13;;;8.65;92.24
22647;BME280;11490;42.726;23.268;2023-03-25T05:33:34;94818.63;;;9.32;89.97
22647;BME280;11490;42.726;23.268;2023-03-25T05:36:02;94847.66;;;9.95;85.00
22647;BME280;11490;42.726;23.268;2023-03-25T05:38:28;94844.63;;;10.59;83.82
22647;BME280;11490;42.726;23.268;2023-03-25T05:40:53;94855.19;;;11.36;82.80
22647;BME280;11490;42.726;23.268;2023-03-25T05:43:19;94858.91;;;11.88;81.25
22647;BME280;11490;42.726;23.268;2023-03-25T05:45:47;94857.75;;;12.48;78.21
22647;BME280;11490;42.726;23.268;2023-03-25T05:48:14;94868.38;;;13.22;74.69
22647;BME280;11490;42.726;23.268;2023-03-25T05:50:39;94858.81;;;13.57;70.21
22647;BME280;11490;42.726;23.268;2023-03-25T05:53:12;94862.94;;;14.15;70.22
22647;BME280;11490;42.726;23.268;2023-03-25T05:55:38;94860.41;;;14.94;66.77
22647;BME280;11490;42.726;23.268;2023-03-25T05:58:03;94868.75;;;14.93;66.62
22647;BME280;11490;42.726;23.268;2023-03-25T06:00:29;94875.09;;;15.87;63.30
22647;BME280;11490;42.726;23.268;2023-03-25T06:02:55;94869.03;;;16.10;61.82
22647;BME280;11490;42.726;23.268;2023-03-25T06:05:23;94876.56;;;16.42;60.70
22647;BME280;11490;42.726;23.268;2023-03-25T06:07:49;94886.53;;;16.75;60.59
22647;BME280;11490;42.726;23.268;2023-03-25T06:10:15;94876.81;;;17.51;57.59
22647;BME280;11490;42.726;23.268;2023-03-25T06:12:45;94867.63;;;17.76;56.83
22647;BME280;11490;42.726;23.268;2023-03-25T06:15:13;94871.53;;;18.58;54.74
22647;BME280;11490;42.726;23.268;2023-03-25T06:17:39;94864.84;;;18.69;54.16
22647;BME280;11490;42.726;23.268;2023-03-25T06:20:09;94866.72;;;19.15;53.24
22647;BME280;11490;42.726;23.268;2023-03-25T06:22:40;94876.03;;;19.36;53.30
22647;BME280;11490;42.726;23.268;2023-03-25T06:25:15;94867.81;;;19.41;51.52
22647;BME280;11490;42.726;23.268;2023-03-25T06:27:42;94880.69;;;20.49;49.27
22647;BME280;11490;42.726;23.268;2023-03-25T06:30:10;94884.25;;;20.35;49.38
22647;BME280;11490;42.726;23.268;2023-03-25T06:32:36;94875.66;;;20.06;49.07
22647;BME280;11490;42.726;23.268;2023-03-25T06:35:03;94883.44;;;21.10;47.06
22647;BME280;11490;42.726;23.268;2023-03-25T06:37:29;94880.00;;;21.19;46.45
22647;BME280;11490;42.726;23.268;2023-03-25T06:39:54;94863.03;;;21.44;45.57
22647;BME280;11490;42.726;23.268;2023-03-25T06:42:22;94883.06;;;21.65;44.67
22647;BME280;11490;42.726;23.268;2023-03-25T06:44:48;94847.78;;;20.95;45.34
22647;BME280;11490;42.726;23.268;2023-03-25T06:47:14;94883.22;;;21.21;44.96
22647;BME280;11490;42.726;23.268;2023-03-25T06:49:39;94873.28;;;20.63;46.48
22647;BME280;11490;42.726;23.268;2023-03-25T06:52:05;94862.63;;;19.31;47.72
22647;BME280;11490;42.726;23.268;2023-03-25T06:54:30;94887.97;;;19.35;51.52
22647;BME280;11490;42.726;23.268;2023-03-25T06:56:56;94885.63;;;19.29;51.63
22647;BME280;11490;42.726;23.268;2023-03-25T06:59:21;94875.22;;;18.62;51.42
22647;BME280;11490;42.726;23.268;2023-03-25T07:01:46;94884.06;;;18.49;54.61
22647;BME280;11490;42.726;23.268;2023-03-25T07:04:12;94884.13;;;18.44;53.95
22647;BME280;11490;42.726;23.268;2023-03-25T07:06:37;94851.78;;;17.69;55.75
22647;BME280;11490;42.726;23.268;2023-03-25T07:09:03;94850.06;;;17.78;54.78
22647;BME280;11490;42.726;23.268;2023-03-25T07:11:28;94850.09;;;16.20;57.64
22647;BME280;11490;42.726;23.268;2023-03-25T07:13:55;94854.72;;;16.48;58.29
22647;BME280;11490;42.726;23.268;2023-03-25T07:16:21;94854.94;;;16.81;60.01
22647;BME280;11490;42.726;23.268;2023-03-25T07:18:47;94851.50;;;16.46;60.15
22647;BME280;11490;42.726;23.268;2023-03-25T07:21:14;94868.94;;;16.20;62.21
22647;BME280;11490;42.726;23.268;2023-03-25T07:23:39;94884.06;;;16.11;60.65
22647;BME280;11490;42.726;23.268;2023-03-25T07:26:05;94865.41;;;16.25;60.45
22647;BME280;11490;42.726;23.268;2023-03-25T07:28:31;94844.84;;;16.39;63.45
22647;BME280;11490;42.726;23.268;2023-03-25T07:30:56;94858.44;;;16.81;63.15
22647;BME280;11490;42.726;23.268;2023-03-25T07:33:21;94860.53;;;16.89;59.47
22647;BME280;11490;42.726;23.268;2023-03-25T07:35:47;94835.09;;;16.77;60.50
22647;BME280;11490;42.726;23.268;2023-03-25T07:38:12;94837.19;;;17.04;60.51
22647;BME280;11490;42.726;23.268;2023-03-25T07:40:39;94860.28;;;17.57;58.31
22647;BME280;11490;42.726;23.268;2023-03-25T07:43:04;94852.31;;;17.47;60.08
22647;BME280;11490;42.726;23.268;2023-03-25T07:45:30;94833.94;;;16.83;58.26
22647;BME280;11490;42.726;23.268;2023-03-25T07:47:55;94822.84;;;16.61;60.75
22647;BME280;11490;42.726;23.268;2023-03-25T07:50:22;94838.31;;;17.26;61.35
22647;BME280;11490;42.726;23.268;2023-03-25T07:52:47;94826.94;;;17.91;59.12
22647;BME280;11490;42.726;23.268;2023-03-25T07:55:13;94836.50;;;17.59;57.58
22647;BME280;11490;42.726;23.268;2023-03-25T07:57:39;94825.56;;;17.08;59.55
22647;BME280;11490;42.726;23.268;2023-03-25T08:00:07;94826.38;;;17.09;59.96
22647;BME280;11490;42.726;23.268;2023-03-25T08:02:32;94834.38;;;16.90;58.99
22647;BME280;11490;42.726;23.268;2023-03-25T08:04:58;94820.28;;;16.45;60.74
22647;BME280;11490;42.726;23.268;2023-03-25T08:07:24;94829.22;;;16.41;61.14
22647;BME280;11490;42.726;23.268;2023-03-25T08:09:49;94802.31;;;16.70;60.69
22647;BME280;11490;42.726;23.268;2023-03-25T08:12:15;94796.69;;;16.90;61.97
22647;BME280;11490;42.726;23.268;2023-03-25T08:14:40;94808.78;;;17.35;61.44
22647;BME280;11490;42.726;23.268;2023-03-25T08:17:06;94784.75;;;17.39;60.26
22647;BME280;11490;42.726;23.268;2023-03-25T08:19:32;94799.84;;;17.58;59.72
22647;BME280;11490;42.726;23.268;2023-03-25T08:21:58;94780.47;;;17.75;60.16
22647;BME280;11490;42.726;23.268;2023-03-25T08:24:23;94788.16;;;17.68;58.56
22647;BME280;11490;42.726;23.268;2023-03-25T08:26:51;94780.84;;;17.68;58.98
22647;BME280;11490;42.726;23.268;2023-03-25T08:29:18;94797.13;;;18.15;56.51
22647;BME280;11490;42.726;23.268;2023-03-25T08:31:44;94791.28;;;17.75;56.73
22647;BME280;11490;42.726;23.268;2023-03-25T08:34:11;94821.34;;;18.20;58.68
22647;BME280;11490;42.726;23.268;2023-03-25T08:36:37;94804.03;;;18.86;57.55
22647;BME280;11490;42.726;23.268;2023-03-25T08:39:06;94810.25;;;19.00;55.61
22647;BME280;11490;42.726;23.268;2023-03-25T08:41:38;94802.81;;;19.05;53.50
22647;BME280;11490;42.726;23.268;2023-03-25T08:44:05;94794.81;;;18.87;57.55
22647;BME280;11490;42.726;23.268;2023-03-25T08:46:31;94800.72;;;19.57;54.50
22647;BME280;11490;42.726;23.268;2023-03-25T08:48:56;94798.09;;;19.66;55.06
22647;BME280;11490;42.726;23.268;2023-03-25T08:51:22;94791.13;;;20.31;51.38
22647;BME280;11490;42.726;23.268;2023-03-25T08:53:47;94791.72;;;20.42;51.04
22647;BME280;11490;42.726;23.268;2023-03-25T08:56:13;94792.44;;;20.56;51.17
22647;BME280;11490;42.726;23.268;2023-03-25T08:58:38;94785.75;;;20.62;51.93
22647;BME280;11490;42.726;23.268;2023-03-25T09:01:04;94788.81;;;21.00;52.16
22647;BME280;11490;42.726;23.268;2023-03-25T09:03:29;94786.69;;;21.20;51.42
22647;BME280;11490;42.726;23.268;2023-03-25T09:05:55;94796.41;;;21.29;49.94
22647;BME280;11490;42.726;23.268;2023-03-25T09:08:21;94781.16;;;21.50;50.52
22647;BME280;11490;42.726;23.268;2023-03-25T09:10:46;94758.97;;;21.00;48.57
22647;BME280;11490;42.726;23.268;2023-03-25T09:13:12;94775.25;;;21.00;47.72
22647;BME280;11490;42.726;23.268;2023-03-25T09:15:40;94756.13;;;21.05;48.38
22647;BME280;11490;42.726;23.268;2023-03-25T09:18:08;94737.94;;;21.14;49.16
22647;BME280;11490;42.726;23.268;2023-03-25T09:20:34;94774.25;;;20.88;49.35
22647;BME280;11490;42.726;23.268;2023-03-25T09:23:00;94771.25;;;21.06;49.77
22647;BME280;11490;42.726;23.268;2023-03-25T09:25:25;94777.09;;;21.22;50.77
22647;BME280;11490;42.726;23.268;2023-03-25T09:27:50;94768.16;;;21.22;48.90
22647;BME280;11490;42.726;23.268;2023-03-25T09:30:16;94752.41;;;21.41;50.38
22647;BME280;11490;42.726;23.268;2023-03-25T09:32:42;94730.25;;;21.56;49.58
22647;BME280;11490;42.726;23.268;2023-03-25T09:35:09;94751.03;;;22.04;49.18
22647;BME280;11490;42.726;23.268;2023-03-25T09:37:34;94756.66;;;21.99;49.90
22647;BME280;11490;42.726;23.268;2023-03-25T09:40:00;94763.31;;;22.44;47.70
22647;BME280;11490;42.726;23.268;2023-03-25T09:45:21;94732.63;;;22.35;45.72
22647;BME280;11490;42.726;23.268;2023-03-25T09:48:04;94744.47;;;22.22;45.16
22647;BME280;11490;42.726;23.268;2023-03-25T09:50:34;94729.50;;;21.99;45.90
22647;BME280;11490;42.726;23.268;2023-03-25T09:55:29;94744.63;;;22.17;44.86
22647;BME280;11490;42.726;23.268;2023-03-25T10:00:40;94717.94;;;22.19;44.82
22647;BME280;11490;42.726;23.268;2023-03-25T10:03:12;94733.25;;;22.41;40.92
22647;BME280;11490;42.726;23.268;2023-03-25T10:08:43;94722.69;;;22.39;42.20
22647;BME280;11490;42.726;23.268;2023-03-25T10:11:22;94722.34;;;22.49;41.16
22647;BME280;11490;42.726;23.268;2023-03-25T10:17:02;94712.88;;;22.64;41.83
22647;BME280;11490;42.726;23.268;2023-03-25T10:20:00;94699.44;;;22.68;41.78
22647;BME280;11490;42.726;23.268;2023-03-25T10:25:04;94694.44;;;22.70;39.91
22647;BME280;11490;42.726;23.268;2023-03-25T10:27:36;94692.16;;;22.89;39.68
22647;BME280;11490;42.726;23.268;2023-03-25T10:32:40;94666.59;;;22.81;39.03
22647;BME280;11490;42.726;23.268;2023-03-25T10:35:11;94678.44;;;22.77;41.59
22647;BME280;11490;42.726;23.268;2023-03-25T10:37:40;94676.28;;;22.99;39.62
22647;BME280;11490;42.726;23.268;2023-03-25T10:45:34;94670.66;;;22.67;41.63
22647;BME280;11490;42.726;23.268;2023-03-25T10:48:18;94664.41;;;22.75;40.32
22647;BME280;11490;42.726;23.268;2023-03-25T10:50:46;94655.38;;;22.91;39.36
22647;BME280;11490;42.726;23.268;2023-03-25T10:53:19;94654.00;;;23.06;41.32
22647;BME280;11490;42.726;23.268;2023-03-25T10:55:48;94635.00;;;23.18;42.86
22647;BME280;11490;42.726;23.268;2023-03-25T10:58:17;94649.34;;;23.07;41.62
22647;BME280;11490;42.726;23.268;2023-03-25T11:00:43;94628.72;;;22.76;41.31
22647;BME280;11490;42.726;23.268;2023-03-25T11:03:19;94637.66;;;23.06;41.88
22647;BME280;11490;42.726;23.268;2023-03-25T11:05:47;94624.78;;;23.15;39.67
22647;BME280;11490;42.726;23.268;2023-03-25T11:11:41;94594.13;;;23.48;39.69
22647;BME280;11490;42.726;23.268;2023-03-25T11:14:24;94622.03;;;23.45;38.05
22647;BME280;11490;42.726;23.268;2023-03-25T11:16:55;94593.66;;;23.25;37.89
22647;BME280;11490;42.726;23.268;2023-03-25T11:20:11;94634.38;;;23.21;37.85
22647;BME280;11490;42.726;23.268;2023-03-25T11:22:46;94603.53;;;22.88;39.20
22647;BME280;11490;42.726;23.268;2023-03-25T11:25:45;94616.25;;;22.75;39.35
22647;BME280;11490;42.726;23.268;2023-03-25T11:31:16;94606.84;;;22.93;39.54
22647;BME280;11490;42.726;23.268;2023-03-25T11:34:03;94583.75;;;22.79;39.69
22647;BME280;11490;42.726;23.268;2023-03-25T11:36:31;94590.78;;;22.80;40.56
22647;BME280;11490;42.726;23.268;2023-03-25T11:39:13;94591.25;;;22.82;40.30
22647;BME280;11490;42.726;23.268;2023-03-25T11:41:40;94586.38;;;22.67;40.52
22647;BME280;11490;42.726;23.268;2023-03-25T11:44:06;94594.31;;;22.72;40.99
22647;BME280;11490;42.726;23.268;2023-03-25T11:46:49;94587.38;;;22.53;40.75
22647;BME280;11490;42.726;23.268;2023-03-25T11:49:20;94580.38;;;22.52;40.67
22647;BME280;11490;42.726;23.268;2023-03-25T11:51:48;94585.22;;;22.38;40.98
22647;BME280;11490;42.726;23.268;2023-03-25T11:54:15;94569.31;;;22.28;40.36
22647;BME280;11490;42.726;23.268;2023-03-25T11:56:42;94579.72;;;22.17;41.01
22647;BME280;11490;42.726;23.268;2023-03-25T11:59:34;94582.47;;;22.09;40.79
22647;BME280;11490;42.726;23.268;2023-03-25T12:07:50;94572.63;;;21.78;41.81
22647;BME280;11490;42.726;23.268;2023-03-25T12:13:06;94571.09;;;21.60;41.53
22647;BME280;11490;42.726;23.268;2023-03-25T12:15:41;94572.84;;;21.47;41.18
22647;BME280;11490;42.726;23.268;2023-03-25T12:27:36;94563.63;;;21.23;42.11
22647;BME280;11490;42.726;23.268;2023-03-25T12:30:31;94564.41;;;21.32;41.69
22647;BME280;11490;42.726;23.268;2023-03-25T12:33:08;94574.63;;;21.35;41.58
22647;BME280;11490;42.726;23.268;2023-03-25T12:39:08;94568.53;;;21.38;41.31
22647;BME280;11490;42.726;23.268;2023-03-25T12:41:46;94559.78;;;21.32;42.07
22647;BME280;11490;42.726;23.268;2023-03-25T12:50:21;94562.16;;;21.51;41.72
22647;BME280;11490;42.726;23.268;2023-03-25T12:56:10;94558.78;;;21.54;41.29
22647;BME280;11490;42.726;23.268;2023-03-25T13:01:36;94549.72;;;21.50;41.92
22647;BME280;11490;42.726;23.268;2023-03-25T13:12:10;94557.25;;;21.19;43.20
22647;BME280;11490;42.726;23.268;2023-03-25T13:14:51;94525.47;;;20.93;42.27
22647;BME280;11490;42.726;23.268;2023-03-25T13:17:29;94554.50;;;20.93;42.40
22647;BME280;11490;42.726;23.268;2023-03-25T13:19:58;94534.09;;;20.78;42.87
22647;BME280;11490;42.726;23.268;2023-03-25T13:22:30;94548.59;;;20.91;43.31
22647;BME280;11490;42.726;23.268;2023-03-25T13:25:00;94544.31;;;20.81;43.00
22647;BME280;11490;42.726;23.268;2023-03-25T13:27:31;94557.38;;;20.79;43.59
22647;BME280;11490;42.726;23.268;2023-03-25T13:29:59;94557.97;;;20.50;43.61
22647;BME280;11490;42.726;23.268;2023-03-25T13:32:31;94559.34;;;20.39;44.97
22647;BME280;11490;42.726;23.268;2023-03-25T13:35:02;94566.94;;;20.20;46.14
22647;BME280;11490;42.726;23.268;2023-03-25T13:37:35;94573.53;;;19.96;45.80
22647;BME280;11490;42.726;23.268;2023-03-25T13:40:08;94573.94;;;19.90;45.87
22647;BME280;11490;42.726;23.268;2023-03-25T13:42:47;94576.31;;;19.83;46.59
22647;BME280;11490;42.726;23.268;2023-03-25T13:45:20;94595.53;;;19.73;45.52
22647;BME280;11490;42.726;23.268;2023-03-25T13:47:53;94594.41;;;19.51;48.69
22647;BME280;11490;42.726;23.268;2023-03-25T13:50:28;94586.06;;;19.39;50.21
22647;BME280;11490;42.726;23.268;2023-03-25T13:53:02;94601.31;;;19.35;48.96
22647;BME280;11490;42.726;23.268;2023-03-25T13:55:34;94604.75;;;19.27;52.85
22647;BME280;11490;42.726;23.268;2023-03-25T14:12:10;94581.91;;;18.34;57.80
22647;BME280;11490;42.726;23.268;2023-03-25T14:14:45;94599.09;;;18.38;60.06
22647;BME280;11490;42.726;23.268;2023-03-25T14:17:12;94580.13;;;18.16;61.49
22647;BME280;11490;42.726;23.268;2023-03-25T14:19:46;94576.09;;;18.13;60.73
22647;BME280;11490;42.726;23.268;2023-03-25T14:22:15;94576.63;;;18.01;61.10
22647;BME280;11490;42.726;23.268;2023-03-25T14:24:42;94569.09;;;17.71;63.07
22647;BME280;11490;42.726;23.268;2023-03-25T14:29:41;94566.03;;;17.59;65.20
22647;BME280;11490;42.726;23.268;2023-03-25T14:34:47;94497.06;;;16.61;74.04
22647;BME280;11490;42.726;23.268;2023-03-25T14:37:23;94514.81;;;16.62;75.23
22647;BME280;11490;42.726;23.268;2023-03-25T14:39:55;94516.78;;;16.75;76.37
22647;BME280;11490;42.726;23.268;2023-03-25T14:42:27;94518.13;;;16.91;77.05
22647;BME280;11490;42.726;23.268;2023-03-25T14:48:23;94508.25;;;16.68;74.41
22647;BME280;11490;42.726;23.268;2023-03-25T14:50:53;94500.09;;;16.73;74.95
22647;BME280;11490;42.726;23.268;2023-03-25T14:53:30;94487.34;;;16.60;74.32
22647;BME280;11490;42.726;23.268;2023-03-25T14:55:59;94472.28;;;16.59;74.18
22647;BME280;11490;42.726;23.268;2023-03-25T14:58:27;94490.13;;;16.73;72.07
22647;BME280;11490;42.726;23.268;2023-03-25T15:03:20;94491.97;;;16.78;72.45
22647;BME280;11490;42.726;23.268;2023-03-25T15:05:54;94463.88;;;16.46;73.68
22647;BME280;11490;42.726;23.268;2023-03-25T15:08:40;94463.41;;;16.58;73.13
22647;BME280;11490;42.726;23.268;2023-03-25T15:11:13;94476.31;;;16.80;72.44
22647;BME280;11490;42.726;23.268;2023-03-25T15:13:48;94461.06;;;16.89;72.87
22647;BME280;11490;42.726;23.268;2023-03-25T15:19:09;94486.78;;;17.27;72.64
22647;BME280;11490;42.726;23.268;2023-03-25T15:26:53;94472.88;;;17.07;69.58
22647;BME280;11490;42.726;23.268;2023-03-25T15:35:41;94453.72;;;16.95;73.13
22647;BME280;11490;42.726;23.268;2023-03-25T15:38:17;94473.66;;;16.93;70.13
22647;BME280;11490;42.726;23.268;2023-03-25T15:46:13;94461.75;;;17.27;70.65
22647;BME280;11490;42.726;23.268;2023-03-25T15:55:12;94468.16;;;17.58;71.59